createdAt,value
2018-07-31T00:01:41.741Z,98443.18
2018-07-31T00:04:08.252Z,98442.69
2018-07-31T00:06:34.817Z,98442.44
2018-07-31T00:09:01.651Z,98440.54
2018-07-31T00:11:28.168Z,98441.77
2018-07-31T00:13:55.683Z,98438.28
2018-07-31T00:16:22.483Z,98433.03
2018-07-31T00:18:48.993Z,98432.98
2018-07-31T00:21:16.529Z,98436.59
2018-07-31T00:23:43.092Z,98437.12
2018-07-31T00:26:09.906Z,98443.47
2018-07-31T00:28:36.422Z,98441.05
2018-07-31T00:31:02.958Z,98443.20
2018-07-31T00:33:29.813Z,98438.99
2018-07-31T00:35:56.361Z,98443.50
2018-07-31T00:38:24.065Z,98443.14
2018-07-31T00:40:50.884Z,98440.89
2018-07-31T00:43:17.392Z,98442.23
2018-07-31T00:45:43.941Z,98441.47
2018-07-31T00:48:10.458Z,98437.19
2018-07-31T00:50:37.259Z,98431.30
2018-07-31T00:53:03.768Z,98436.27
2018-07-31T00:55:30.275Z,98425.28
2018-07-31T00:57:56.817Z,98425.87
2018-07-31T01:00:23.624Z,98422.80
2018-07-31T01:02:50.296Z,98427.62
2018-07-31T01:05:17.442Z,98427.77
2018-07-31T01:07:45.267Z,98421.78
2018-07-31T01:10:12.417Z,98419.64
2018-07-31T01:12:38.935Z,98421.75
2018-07-31T01:15:05.445Z,98412.85
2018-07-31T01:17:32.253Z,98417.92
2018-07-31T01:19:58.761Z,98416.61
2018-07-31T01:22:25.313Z,98414.00
2018-07-31T01:24:52.803Z,98411.55
2018-07-31T01:27:19.603Z,98404.44
2018-07-31T01:29:46.163Z,98410.36
2018-07-31T01:32:12.716Z,98405.30
2018-07-31T01:34:39.252Z,98413.14
2018-07-31T01:37:06.052Z,98408.73
2018-07-31T01:39:32.568Z,98403.27
2018-07-31T01:42:01.026Z,98400.03
2018-07-31T01:44:27.574Z,98404.05
2018-07-31T01:46:54.385Z,98408.84
2018-07-31T01:49:20.941Z,98408.08
2018-07-31T01:51:47.488Z,98408.23
2018-07-31T01:54:14.008Z,98399.34
2018-07-31T01:56:40.817Z,98400.81
2018-07-31T01:59:07.349Z,98399.63
2018-07-31T02:01:33.870Z,98405.27
2018-07-31T02:04:00.379Z,98401.17
2018-07-31T02:06:27.196Z,98401.02
2018-07-31T02:08:53.753Z,98392.57
2018-07-31T02:11:20.308Z,98394.55
2018-07-31T02:13:47.173Z,98392.28
2018-07-31T02:16:13.716Z,98394.19
2018-07-31T02:18:40.238Z,98392.44
2018-07-31T02:21:06.749Z,98391.20
2018-07-31T02:23:33.557Z,98382.05
2018-07-31T02:26:00.101Z,98379.78
2018-07-31T02:28:26.647Z,98379.98
2018-07-31T02:30:53.480Z,98384.78
2018-07-31T02:33:20.021Z,98384.55
2018-07-31T02:35:46.566Z,98380.36
2018-07-31T02:38:13.093Z,98395.11
2018-07-31T02:40:39.994Z,98396.98
2018-07-31T02:43:06.542Z,98390.91
2018-07-31T02:45:33.161Z,98393.45
2018-07-31T02:47:59.698Z,98398.64
2018-07-31T02:50:26.516Z,98403.41
2018-07-31T02:52:53.064Z,98407.83
2018-07-31T02:55:19.607Z,98408.75
2018-07-31T02:57:46.174Z,98407.42
2018-07-31T03:00:13.000Z,98405.91
2018-07-31T03:02:39.512Z,98404.56
2018-07-31T03:05:06.083Z,98400.33
2018-07-31T03:07:32.893Z,98400.03
2018-07-31T03:09:59.411Z,98391.91
2018-07-31T03:12:25.936Z,98398.12
2018-07-31T03:14:52.471Z,98398.75
2018-07-31T03:17:19.321Z,98400.45
2018-07-31T03:19:45.869Z,98402.94
2018-07-31T03:22:12.452Z,98403.79
2018-07-31T03:24:39.006Z,98400.75
2018-07-31T03:27:05.856Z,98408.42
2018-07-31T03:29:32.371Z,98416.97
2018-07-31T03:31:58.879Z,98418.42
2018-07-31T03:34:25.423Z,98419.64
2018-07-31T03:36:52.238Z,98415.11
2018-07-31T03:39:18.759Z,98414.72
2018-07-31T03:41:45.268Z,98417.45
2018-07-31T03:44:12.111Z,98418.91
2018-07-31T03:46:38.619Z,98411.62
2018-07-31T03:49:05.168Z,98410.48
2018-07-31T03:51:31.713Z,98419.59
2018-07-31T03:53:58.636Z,98431.42
2018-07-31T03:56:25.243Z,98425.69
2018-07-31T03:58:51.793Z,98427.48
2018-07-31T04:01:18.561Z,98429.91
2018-07-31T04:03:45.091Z,98429.43
2018-07-31T04:06:11.611Z,98429.22
2018-07-31T04:08:38.120Z,98431.62
2018-07-31T04:11:05.130Z,98428.66
2018-07-31T04:13:31.678Z,98428.14
2018-07-31T04:15:58.692Z,98429.27
2018-07-31T04:18:25.632Z,98435.52
2018-07-31T04:20:52.137Z,98420.91
2018-07-31T04:23:18.640Z,98434.36
2018-07-31T04:25:45.161Z,98434.27
2018-07-31T04:28:11.994Z,98433.46
2018-07-31T04:30:38.546Z,98440.66
2018-07-31T04:33:05.104Z,98429.63
2018-07-31T04:35:31.924Z,98442.20
2018-07-31T04:37:58.485Z,98438.11
2018-07-31T04:40:24.996Z,98440.64
2018-07-31T04:42:51.805Z,98436.48
2018-07-31T04:45:18.348Z,98442.17
2018-07-31T04:47:44.885Z,98437.55
2018-07-31T04:50:11.764Z,98440.86
2018-07-31T04:52:38.287Z,98438.31
2018-07-31T04:55:04.805Z,98446.91
2018-07-31T04:57:31.613Z,98439.52
2018-07-31T04:59:58.161Z,98444.25
2018-07-31T05:02:24.679Z,98452.81
2018-07-31T05:04:52.241Z,98453.55
2018-07-31T05:07:18.789Z,98453.18
2018-07-31T05:09:45.323Z,98453.55
2018-07-31T05:12:12.137Z,98449.60
2018-07-31T05:14:39.205Z,98458.06
2018-07-31T05:17:05.799Z,98458.25
2018-07-31T05:19:32.665Z,98456.09
2018-07-31T05:21:59.225Z,98452.89
2018-07-31T05:24:25.749Z,98449.23
2018-07-31T05:26:52.610Z,98458.49
2018-07-31T05:29:19.149Z,98446.67
2018-07-31T05:31:45.701Z,98449.83
2018-07-31T05:34:12.552Z,98448.98
2018-07-31T05:36:39.147Z,98454.16
2018-07-31T05:39:05.667Z,98456.75
2018-07-31T05:41:32.517Z,98451.03
2018-07-31T05:43:59.068Z,98451.72
2018-07-31T05:46:25.644Z,98447.84
2018-07-31T05:48:54.493Z,98451.98
2018-07-31T05:51:22.676Z,98453.05
2018-07-31T05:53:49.229Z,98450.88
2018-07-31T05:56:18.656Z,98453.97
2018-07-31T05:58:45.193Z,98454.57
2018-07-31T06:01:11.737Z,98456.94
2018-07-31T06:03:38.270Z,98460.85
2018-07-31T06:06:05.175Z,98463.93
2018-07-31T06:08:32.880Z,98456.23
2018-07-31T06:10:59.402Z,98461.09
2018-07-31T06:13:25.915Z,98460.48
2018-07-31T06:15:53.388Z,98463.84
2018-07-31T06:18:19.912Z,98459.36
2018-07-31T06:20:46.442Z,98456.05
2018-07-31T06:23:13.556Z,98458.05
2018-07-31T06:25:40.172Z,98464.34
2018-07-31T06:28:07.029Z,98458.53
2018-07-31T06:30:33.891Z,98461.10
2018-07-31T06:33:00.566Z,98462.92
2018-07-31T06:35:27.112Z,98458.38
2018-07-31T06:37:55.345Z,98453.20
2018-07-31T06:40:21.985Z,98460.98
2018-07-31T06:42:48.584Z,98469.67
2018-07-31T06:45:15.560Z,98474.28
2018-07-31T06:47:42.084Z,98471.86
2018-07-31T06:50:08.596Z,98478.74
2018-07-31T06:52:35.452Z,98486.95
2018-07-31T06:55:01.975Z,98487.65
2018-07-31T06:57:28.492Z,98489.95
2018-07-31T06:59:55.417Z,98484.39
2018-07-31T07:02:21.977Z,98487.66
2018-07-31T07:04:48.500Z,98489.32
2018-07-31T07:07:15.316Z,98492.87
2018-07-31T07:09:41.877Z,98498.41
2018-07-31T07:12:08.413Z,98499.52
2018-07-31T07:14:35.258Z,98493.84
2018-07-31T07:17:01.786Z,98496.14
2018-07-31T07:19:28.304Z,98507.70
2018-07-31T07:21:55.648Z,98505.38
2018-07-31T07:24:22.193Z,98514.91
2018-07-31T07:26:48.724Z,98511.20
2018-07-31T07:29:15.578Z,98510.86
2018-07-31T07:31:42.131Z,98513.98
2018-07-31T07:34:09.329Z,98515.09
2018-07-31T07:36:36.705Z,98511.92
2018-07-31T07:39:03.269Z,98510.58
2018-07-31T07:41:30.761Z,98511.28
2018-07-31T07:43:57.594Z,98510.59
2018-07-31T07:46:24.678Z,98512.83
2018-07-31T07:48:51.206Z,98513.69
2018-07-31T07:51:18.030Z,98517.53
2018-07-31T07:53:44.573Z,98514.22
2018-07-31T07:56:11.932Z,98514.84
2018-07-31T07:58:39.432Z,98510.20
2018-07-31T08:01:05.989Z,98516.41
2018-07-31T08:03:32.504Z,98515.99
2018-07-31T08:05:59.320Z,98513.06
2018-07-31T08:08:28.864Z,98519.12
2018-07-31T08:10:55.655Z,98516.80
2018-07-31T08:13:22.675Z,98518.53
2018-07-31T08:15:50.006Z,98521.31
2018-07-31T08:18:16.540Z,98515.65
2018-07-31T08:23:14.429Z,98513.79
2018-07-31T08:25:40.974Z,98516.89
2018-07-31T08:28:08.325Z,98521.34
2018-07-31T08:30:35.477Z,98525.61
2018-07-31T08:33:02.001Z,98524.02
2018-07-31T08:35:28.827Z,98521.60
2018-07-31T08:37:55.370Z,98514.27
2018-07-31T08:40:22.557Z,98520.58
2018-07-31T08:42:49.395Z,98510.86
2018-07-31T08:45:15.928Z,98509.76
2018-07-31T08:47:43.601Z,98496.22
2018-07-31T08:50:10.404Z,98491.05
2018-07-31T08:52:38.010Z,98492.92
2018-07-31T08:55:04.552Z,98496.62
2018-07-31T08:57:31.387Z,98495.47
2018-07-31T08:59:59.111Z,98496.73
2018-07-31T09:02:25.670Z,98494.69
2018-07-31T09:04:57.205Z,98494.75
2018-07-31T09:07:23.728Z,98498.00
2018-07-31T09:09:50.309Z,98497.28
2018-07-31T09:12:17.114Z,98497.29
2018-07-31T09:14:43.654Z,98497.98
2018-07-31T09:17:10.212Z,98491.26
2018-07-31T09:19:37.061Z,98500.62
2018-07-31T09:22:03.622Z,98496.33
2018-07-31T09:24:30.369Z,98502.39
2018-07-31T09:26:57.330Z,98497.38
2018-07-31T09:29:24.915Z,98492.45
2018-07-31T09:31:51.461Z,98504.38
2018-07-31T09:34:18.076Z,98496.66
2018-07-31T09:36:44.613Z,98502.98
2018-07-31T09:39:11.521Z,98500.08
2018-07-31T09:41:38.072Z,98501.67
2018-07-31T09:44:05.491Z,98514.84
2018-07-31T09:46:33.261Z,98504.19
2018-07-31T09:49:00.853Z,98506.75
2018-07-31T09:51:28.072Z,98516.54
2018-07-31T09:53:56.024Z,98509.88
2018-07-31T09:56:23.486Z,98517.27
2018-07-31T09:58:50.114Z,98521.98
2018-07-31T10:01:19.004Z,98529.30
2018-07-31T10:03:46.531Z,98525.97
2018-07-31T10:06:13.795Z,98519.47
2018-07-31T10:08:40.954Z,98526.05
2018-07-31T10:11:08.776Z,98514.64
2018-07-31T10:13:35.491Z,98523.98
2018-07-31T10:16:02.366Z,98519.25
2018-07-31T10:18:29.047Z,98522.53
2018-07-31T10:20:56.540Z,98521.86
2018-07-31T10:25:54.342Z,98521.09
2018-07-31T10:28:20.909Z,98528.73
2018-07-31T10:30:48.020Z,98535.72
2018-07-31T10:33:14.501Z,98534.14
2018-07-31T10:40:52.092Z,98534.22
2018-07-31T10:43:19.312Z,98536.70
2018-07-31T10:45:45.844Z,98531.80
2018-07-31T10:48:12.396Z,98534.34
2018-07-31T10:50:39.517Z,98530.75
2018-07-31T10:53:06.114Z,98531.62
2018-07-31T10:55:32.625Z,98525.64
2018-07-31T10:57:59.465Z,98535.07
2018-07-31T11:00:27.749Z,98532.38
2018-07-31T11:02:54.387Z,98535.67
2018-07-31T11:05:21.227Z,98530.23
2018-07-31T11:07:48.385Z,98529.20
2018-07-31T11:10:16.580Z,98541.45
2018-07-31T11:12:43.399Z,98532.80
2018-07-31T11:15:09.913Z,98536.81
2018-07-31T11:17:36.457Z,98540.19
2018-07-31T11:20:03.292Z,98543.21
2018-07-31T11:22:29.828Z,98536.22
2018-07-31T11:24:56.773Z,98536.36
2018-07-31T11:27:23.770Z,98537.19
2018-07-31T11:29:50.418Z,98543.64
2018-07-31T11:32:17.966Z,98540.67
2018-07-31T11:34:44.505Z,98546.54
2018-07-31T11:37:11.067Z,98548.64
2018-07-31T11:39:37.913Z,98541.67
2018-07-31T11:42:04.457Z,98548.41
2018-07-31T11:44:31.006Z,98542.21
2018-07-31T11:46:58.250Z,98535.09
2018-07-31T11:49:25.371Z,98541.80
2018-07-31T11:51:51.918Z,98535.91
2018-07-31T11:54:19.389Z,98537.63
2018-07-31T11:56:45.941Z,98539.08
2018-07-31T11:59:12.455Z,98542.61
2018-07-31T12:01:39.328Z,98549.14
2018-07-31T12:04:05.887Z,98546.03
2018-07-31T12:06:32.399Z,98535.86
2018-07-31T12:09:00.314Z,98550.11
2018-07-31T12:11:26.872Z,98546.83
2018-07-31T12:13:53.450Z,98546.02
2018-07-31T12:16:21.202Z,98547.05
2018-07-31T12:18:47.749Z,98544.57
2018-07-31T12:21:14.310Z,98545.03
2018-07-31T12:23:41.159Z,98555.34
2018-07-31T12:26:07.835Z,98546.62
2018-07-31T12:28:34.388Z,98554.19
2018-07-31T12:31:01.204Z,98567.91
2018-07-31T12:33:27.748Z,98568.48
2018-07-31T12:35:54.325Z,98546.94
2018-07-31T12:38:21.161Z,98559.63
2018-07-31T12:40:47.717Z,98559.23
2018-07-31T12:43:14.344Z,98571.30
2018-07-31T12:45:42.103Z,98564.15
2018-07-31T12:48:08.651Z,98563.58
2018-07-31T12:50:35.987Z,98559.42
2018-07-31T12:53:03.445Z,98554.78
2018-07-31T12:55:31.655Z,98551.48
2018-07-31T12:57:58.484Z,98549.14
2018-07-31T13:00:25.285Z,98554.38
2018-07-31T13:02:51.833Z,98547.13
2018-07-31T13:05:18.412Z,98555.47
2018-07-31T13:07:46.174Z,98555.31
2018-07-31T13:10:12.714Z,98560.53
2018-07-31T13:12:39.308Z,98562.25
2018-07-31T13:15:06.157Z,98554.97
2018-07-31T13:17:32.711Z,98555.27
2018-07-31T13:19:59.472Z,98555.70
2018-07-31T13:22:27.945Z,98552.83
2018-07-31T13:24:54.484Z,98545.47
2018-07-31T13:27:22.564Z,98543.20
2018-07-31T13:29:50.534Z,98535.83
2018-07-31T13:32:20.559Z,98536.48
2018-07-31T13:34:49.764Z,98547.83
2018-07-31T13:39:51.278Z,98540.88
2018-07-31T13:42:17.804Z,98539.77
2018-07-31T13:44:45.230Z,98547.34
2018-07-31T13:47:12.292Z,98545.77
2018-07-31T13:49:40.410Z,98539.72
2018-07-31T13:52:07.023Z,98530.81
2018-07-31T13:54:33.885Z,98540.25
2018-07-31T13:57:00.506Z,98538.78
2018-07-31T13:59:27.030Z,98536.99
2018-07-31T14:01:54.475Z,98546.00
2018-07-31T14:04:22.674Z,98539.91
2018-07-31T14:06:50.349Z,98535.31
2018-07-31T14:09:20.533Z,98531.09
2018-07-31T14:11:47.368Z,98546.64
2018-07-31T14:14:17.859Z,98536.01
2018-07-31T14:16:47.579Z,98535.47
2018-07-31T14:19:14.366Z,98542.60
2018-07-31T14:21:40.912Z,98533.41
2018-07-31T14:24:08.527Z,98530.20
2018-07-31T14:26:35.240Z,98528.99
2018-07-31T14:29:01.801Z,98527.16
2018-07-31T14:31:28.620Z,98536.31
2018-07-31T14:33:55.228Z,98532.26
2018-07-31T14:36:21.777Z,98528.33
2018-07-31T14:38:49.313Z,98532.37
2018-07-31T14:41:15.874Z,98536.34
2018-07-31T14:43:42.393Z,98528.29
2018-07-31T14:46:10.676Z,98531.83
2018-07-31T14:48:38.334Z,98529.37
2018-07-31T14:51:07.858Z,98532.54
2018-07-31T14:53:34.703Z,98544.70
2018-07-31T14:56:01.288Z,98540.63
2018-07-31T14:58:28.036Z,98540.11
2018-07-31T15:00:58.614Z,98541.86
2018-07-31T15:03:25.162Z,98548.30
2018-07-31T15:05:51.689Z,98541.20
2018-07-31T15:08:18.537Z,98542.48
2018-07-31T15:10:45.145Z,98556.31
2018-07-31T15:13:11.730Z,98543.09
2018-07-31T15:15:38.701Z,98559.72
2018-07-31T15:18:06.233Z,98558.63
2018-07-31T15:20:32.800Z,98583.06
2018-07-31T15:22:59.794Z,98563.62
2018-07-31T15:25:26.357Z,98550.50
2018-07-31T15:27:53.605Z,98560.63
2018-07-31T15:30:22.613Z,98558.45
2018-07-31T15:32:49.404Z,98565.91
2018-07-31T15:35:17.026Z,98563.28
2018-07-31T15:37:47.755Z,98572.45
2018-07-31T15:40:14.275Z,98577.61
2018-07-31T15:42:40.797Z,98561.64
2018-07-31T15:45:07.615Z,98578.28
2018-07-31T15:47:34.379Z,98592.28
2018-07-31T15:50:00.941Z,98567.53
2018-07-31T15:52:28.396Z,98573.58
2018-07-31T15:54:55.566Z,98579.39
2018-07-31T15:57:22.120Z,98571.95
2018-07-31T15:59:48.957Z,98572.88
2018-07-31T16:02:15.496Z,98565.83
2018-07-31T16:04:43.676Z,98564.41
2018-07-31T16:07:10.520Z,98554.19
2018-07-31T16:09:37.106Z,98569.86
2018-07-31T16:12:04.192Z,98568.39
2018-07-31T16:14:31.009Z,98566.88
2018-07-31T16:16:57.581Z,98583.84
2018-07-31T16:19:24.132Z,98566.66
2018-07-31T16:21:50.940Z,98578.17
2018-07-31T16:24:17.455Z,98577.29
2018-07-31T16:26:43.999Z,98574.48
2018-07-31T16:29:10.842Z,98570.92
2018-07-31T16:31:37.399Z,98572.94
2018-07-31T16:34:05.157Z,98573.45
2018-07-31T16:36:33.542Z,98566.14
2018-07-31T16:39:01.684Z,98577.23
2018-07-31T16:41:29.562Z,98590.07
2018-07-31T16:43:56.116Z,98583.00
2018-07-31T16:46:22.668Z,98568.55
2018-07-31T16:48:50.359Z,98585.56
2018-07-31T16:51:17.870Z,98600.97
2018-07-31T16:53:45.592Z,98589.05
2018-07-31T16:56:16.443Z,98590.80
2018-07-31T16:58:42.948Z,98578.01
2018-07-31T17:01:09.463Z,98594.78
2018-07-31T17:03:36.275Z,98587.53
2018-07-31T17:06:02.816Z,98583.66
2018-07-31T17:08:29.321Z,98581.38
2018-07-31T17:10:56.266Z,98595.06
2018-07-31T17:13:23.316Z,98596.66
2018-07-31T17:15:49.865Z,98602.66
2018-07-31T17:18:16.697Z,98602.00
2018-07-31T17:20:43.233Z,98604.33
2018-07-31T17:23:09.769Z,98606.78
2018-07-31T17:25:36.613Z,98604.41
2018-07-31T17:28:03.800Z,98602.16
2018-07-31T17:30:31.045Z,98614.56
2018-07-31T17:32:57.847Z,98603.22
2018-07-31T17:35:24.384Z,98613.05
2018-07-31T17:37:50.941Z,98616.08
2018-07-31T17:40:18.359Z,98619.18
2018-07-31T17:42:44.924Z,98629.25
2018-07-31T17:45:11.428Z,98613.98
2018-07-31T17:47:38.314Z,98619.72
2018-07-31T17:50:05.017Z,98617.48
2018-07-31T17:52:32.056Z,98634.24
2018-07-31T17:54:58.892Z,98632.91
2018-07-31T17:57:25.402Z,98623.01
2018-07-31T17:59:51.942Z,98636.01
2018-07-31T18:02:18.798Z,98635.34
2018-07-31T18:04:45.362Z,98634.34
2018-07-31T18:07:11.925Z,98646.44
2018-07-31T18:09:39.756Z,98649.49
2018-07-31T18:12:06.384Z,98646.66
2018-07-31T18:14:33.639Z,98650.70
2018-07-31T18:17:00.490Z,98658.33
2018-07-31T18:19:27.014Z,98658.61
2018-07-31T18:21:54.815Z,98662.21
2018-07-31T18:24:21.762Z,98662.59
2018-07-31T18:26:49.944Z,98665.16
2018-07-31T18:29:20.094Z,98669.88
2018-07-31T18:31:48.628Z,98667.28
2018-07-31T18:34:19.304Z,98675.95
2018-07-31T18:36:46.451Z,98677.81
2018-07-31T18:39:13.009Z,98675.63
2018-07-31T18:41:41.086Z,98678.95
2018-07-31T18:44:09.292Z,98677.45
2018-07-31T18:46:36.809Z,98677.35
2018-07-31T18:49:05.988Z,98685.52
2018-07-31T18:51:33.564Z,98684.31
2018-07-31T18:54:00.076Z,98696.13
2018-07-31T18:56:26.662Z,98699.09
2018-07-31T18:58:54.504Z,98706.29
2018-07-31T19:01:21.169Z,98700.56
2018-07-31T19:03:51.478Z,98703.38
2018-07-31T19:06:17.984Z,98710.78
2018-07-31T19:08:44.511Z,98712.17
2018-07-31T19:11:12.201Z,98708.59
2018-07-31T19:13:38.704Z,98714.95
2018-07-31T19:16:07.681Z,98726.88
2018-07-31T19:18:34.484Z,98725.38
2018-07-31T19:21:01.001Z,98732.18
2018-07-31T19:23:28.196Z,98736.11
2018-07-31T19:25:56.294Z,98737.14
2018-07-31T19:28:23.913Z,98745.25
2018-07-31T19:30:50.616Z,98752.17
2018-07-31T19:33:19.068Z,98757.06
2018-07-31T19:35:45.948Z,98757.41
2018-07-31T19:38:12.580Z,98763.65
2018-07-31T19:40:39.465Z,98769.88
2018-07-31T19:43:06.543Z,98765.48
2018-07-31T19:45:33.262Z,98771.72
2018-07-31T19:48:00.348Z,98774.41
2018-07-31T19:50:27.502Z,98772.20
2018-07-31T19:52:54.053Z,98782.45
2018-07-31T19:55:20.953Z,98778.53
2018-07-31T19:57:47.471Z,98782.89
2018-07-31T20:00:15.904Z,98783.87
2018-07-31T20:05:13.942Z,98785.34
2018-07-31T20:07:41.517Z,98793.38
2018-07-31T20:10:09.244Z,98795.38
2018-07-31T20:12:36.572Z,98800.59
2018-07-31T20:15:03.218Z,98800.17
2018-07-31T20:17:31.220Z,98803.69
2018-07-31T20:19:58.726Z,98811.42
2018-07-31T20:22:25.272Z,98815.11
2018-07-31T20:27:23.505Z,98815.30
2018-07-31T20:29:51.010Z,98822.98
2018-07-31T20:34:58.985Z,98831.17
2018-07-31T20:37:29.217Z,98830.27
2018-07-31T20:39:55.789Z,98835.58
2018-07-31T20:42:22.433Z,98836.91
2018-07-31T20:44:50.438Z,98832.47
2018-07-31T20:47:16.968Z,98840.13
2018-07-31T20:49:44.326Z,98848.03
2018-07-31T20:52:11.205Z,98834.16
2018-07-31T20:54:38.749Z,98841.34
2018-07-31T20:57:05.821Z,98847.20
2018-07-31T20:59:32.984Z,98842.92
2018-07-31T21:01:59.753Z,98847.44
2018-07-31T21:04:27.518Z,98855.61
2018-07-31T21:06:54.328Z,98858.96
2018-07-31T21:09:20.836Z,98860.78
2018-07-31T21:11:48.088Z,98856.33
2018-07-31T21:14:15.382Z,98857.98
2018-07-31T21:16:43.094Z,98861.69
2018-07-31T21:19:10.008Z,98857.48
2018-07-31T21:21:36.728Z,98853.37
2018-07-31T21:24:03.381Z,98859.05
2018-07-31T21:26:30.447Z,98855.94
2018-07-31T21:28:58.636Z,98867.01
2018-07-31T21:31:25.207Z,98872.20
2018-07-31T21:33:52.389Z,98868.27
2018-07-31T21:36:19.012Z,98876.61
2018-07-31T21:38:45.520Z,98872.18
2018-07-31T21:41:12.287Z,98881.18
2018-07-31T21:43:39.011Z,98881.70
2018-07-31T21:46:06.940Z,98876.75
2018-07-31T21:48:33.822Z,98882.42
2018-07-31T21:51:01.482Z,98872.25
2018-07-31T21:53:29.169Z,98879.93
2018-07-31T21:55:56.226Z,98885.61
2018-07-31T21:58:26.114Z,98884.19
2018-07-31T22:00:53.545Z,98883.07
2018-07-31T22:03:20.884Z,98880.87
2018-07-31T22:05:47.686Z,98879.48
2018-07-31T22:08:14.178Z,98874.41
2018-07-31T22:10:40.675Z,98883.25
2018-07-31T22:13:07.121Z,98875.47
2018-07-31T22:15:33.894Z,98886.52
2018-07-31T22:18:00.386Z,98889.14
2018-07-31T22:20:27.656Z,98890.44
2018-07-31T22:22:54.339Z,98888.86
2018-07-31T22:25:21.150Z,98887.37
2018-07-31T22:27:47.606Z,98889.16
2018-07-31T22:30:14.167Z,98888.10
2018-07-31T22:32:40.873Z,98893.11
2018-07-31T22:35:07.320Z,98889.66
2018-07-31T22:37:34.452Z,98893.27
2018-07-31T22:40:01.197Z,98889.86
2018-07-31T22:42:28.593Z,98900.48
2018-07-31T22:44:55.044Z,98898.94
2018-07-31T22:47:21.530Z,98901.91
2018-07-31T22:49:48.309Z,98902.80
2018-07-31T22:52:15.395Z,98908.17
2018-07-31T22:54:41.877Z,98914.32
2018-07-31T22:57:08.653Z,98925.50
2018-07-31T22:59:35.106Z,98923.59
2018-07-31T23:02:02.201Z,98919.99
2018-07-31T23:04:28.715Z,98920.03
2018-07-31T23:06:55.493Z,98927.30
2018-07-31T23:09:22.966Z,98925.38
2018-07-31T23:11:49.424Z,98926.83
2018-07-31T23:14:15.877Z,98916.00
2018-07-31T23:16:42.617Z,98920.58
2018-07-31T23:19:09.094Z,98920.15
2018-07-31T23:21:35.545Z,98910.17
2018-07-31T23:24:02.027Z,98917.31
2018-07-31T23:26:28.785Z,98916.36
2018-07-31T23:28:56.100Z,98916.30
2018-07-31T23:31:22.564Z,98918.41
2018-07-31T23:33:49.041Z,98915.14
2018-07-31T23:36:15.853Z,98907.58
2018-07-31T23:38:42.298Z,98910.89
2018-07-31T23:41:08.736Z,98924.64
2018-07-31T23:43:35.198Z,98929.36
2018-07-31T23:46:01.954Z,98922.56
2018-07-31T23:48:28.437Z,98916.76
2018-07-31T23:50:54.889Z,98920.20
2018-07-31T23:53:21.482Z,98915.73
2018-07-31T23:55:49.217Z,98915.86
2018-07-31T23:58:15.701Z,98914.19
